Time;durP1;ratioP1;P1;durP2;ratioP2;P2;SDS_P1;SDS_P2;PMS_P1;PMS_P2;Temp;Humidity;BMP_temperature;BMP_pressure;BME280_temperature;BME280_humidity;BME280_pressure;Samples;Min_cycle;Max_cycle;Signal;HPM_P1;HPM_P2
2023/03/06 00:01:04;;;;;;;;;;;2.90;99.90;;;;;;5080435;28;19933;-88
2023/03/06 00:03:48;;;;;;;;;;;3.30;99.90;;;;;;5074967;28;20348;-89
2023/03/06 00:06:13;;;;;;;;;;;5.70;99.90;;;;;;5034828;28;19956;-88
2023/03/06 00:08:44;;;;;;;;;;;5.70;99.90;;;;;;5051605;28;19982;-89
2023/03/06 00:11:13;;;;;;;;;;;2.70;99.90;;;;;;5036259;28;19931;-89
2023/03/06 00:13:41;;;;;;;;;;;4.20;99.90;;;;;;5033113;28;19932;-88
2023/03/06 00:16:12;;;;;;;;;;;3.10;99.90;;;;;;5038306;28;19972;-88
2023/03/06 00:18:38;;;;;;;;;;;2.50;99.90;;;;;;5052597;28;20012;-88
2023/03/06 00:21:10;;;;;;;;;;;3.70;99.90;;;;;;5041103;28;19986;-89
2023/03/06 00:23:43;;;;;;;;;;;2.40;99.90;;;;;;5071904;28;19925;-89
2023/03/06 00:26:11;;;;;;;;;;;0.20;99.90;;;;;;5049798;28;20459;-89
2023/03/06 00:28:39;;;;;;;;;;;2.40;99.90;;;;;;5027412;28;19929;-89
2023/03/06 00:31:05;;;;;;;;;;;5.10;99.90;;;;;;5053877;28;20373;-89
2023/03/06 00:33:31;;;;;;;;;;;2.40;99.90;;;;;;5074976;28;19971;-89
2023/03/06 00:36:01;;;;;;;;;;;4.40;99.90;;;;;;5054900;28;19981;-89
2023/03/06 00:38:30;;;;;;;;;;;3.10;99.90;;;;;;5038393;28;19936;-90
2023/03/06 00:41:18;;;;;;;;;;;2.90;99.90;;;;;;5040555;28;19931;-89
2023/03/06 00:43:46;;;;;;;;;;;1.90;99.90;;;;;;5058695;28;19925;-90
2023/03/06 00:46:19;;;;;;;;;;;2.80;99.90;;;;;;5053821;28;20261;-90
2023/03/06 00:48:48;;;;;;;;;;;5.30;99.90;;;;;;5055200;28;19924;-89
2023/03/06 00:51:16;;;;;;;;;;;1.80;99.90;;;;;;5034757;28;19968;-89
2023/03/06 00:53:44;;;;;;;;;;;2.80;99.90;;;;;;5030385;28;19931;-89
2023/03/06 00:56:33;;;;;;;;;;;3.10;99.90;;;;;;5028380;28;20383;-89
2023/03/06 00:59:21;;;;;;;;;;;3.00;99.90;;;;;;5031359;28;19958;-90
2023/03/06 01:01:57;;;;;;;;;;;2.20;99.90;;;;;;5061256;28;19929;-90
2023/03/06 01:04:43;;;;;;;;;;;4.30;99.90;;;;;;5032436;28;19925;-90
2023/03/06 01:07:20;;;;;;;;;;;5.10;99.90;;;;;;5056969;28;20291;-90
2023/03/06 01:09:49;;;;;;;;;;;3.20;99.90;;;;;;5045399;28;20039;-90
2023/03/06 01:12:16;;;;;;;;;;;-0.10;99.90;;;;;;5021351;28;19929;-91
2023/03/06 01:14:48;;;;;;;;;;;1.90;99.90;;;;;;5052708;28;19978;-89
2023/03/06 01:17:40;;;;;;;;;;;6.10;99.90;;;;;;5085195;28;19925;-90
2023/03/06 01:20:15;;;;;;;;;;;3.50;99.90;;;;;;5054068;28;19925;-90
2023/03/06 01:22:51;;;;;;;;;;;1.90;99.90;;;;;;5034296;28;19967;-89
2023/03/06 01:25:36;;;;;;;;;;;1.10;99.90;;;;;;5021364;28;20032;-92
2023/03/06 01:28:05;;;;;;;;;;;1.90;99.90;;;;;;5057924;28;20377;-90
2023/03/06 01:30:33;;;;;;;;;;;-0.30;99.90;;;;;;5019926;28;19931;-89
2023/03/06 01:33:09;;;;;;;;;;;2.10;99.90;;;;;;5038140;28;19970;-89
2023/03/06 01:35:45;;;;;;;;;;;1.80;99.90;;;;;;5085892;28;19929;-91
2023/03/06 01:38:16;;;;;;;;;;;2.40;99.90;;;;;;5073898;28;19986;-90
2023/03/06 01:41:09;;;;;;;;;;;2.20;99.90;;;;;;5037130;28;20304;-90
2023/03/06 01:43:43;;;;;;;;;;;3.30;99.90;;;;;;5028652;28;19960;-90
2023/03/06 01:46:31;;;;;;;;;;;4.00;99.90;;;;;;5052491;28;20015;-90
2023/03/06 01:49:05;;;;;;;;;;;2.80;99.90;;;;;;5076003;28;19929;-89
2023/03/06 01:51:49;;;;;;;;;;;1.90;99.90;;;;;;5035764;28;20470;-89
2023/03/06 01:54:18;;;;;;;;;;;3.80;99.90;;;;;;5053824;28;19925;-90
2023/03/06 01:56:55;;;;;;;;;;;;;;;;;;;;;
2023/03/06 01:59:35;;;;;;;;;;;5.10;99.90;;;;;;5051834;28;19978;-90
2023/03/06 02:02:20;;;;;;;;;;;1.30;99.90;;;;;;5026574;28;19932;-90
2023/03/06 02:04:51;;;;;;;;;;;0.70;99.90;;;;;;5027813;28;20261;-90
2023/03/06 02:07:30;;;;;;;;;;;0.10;99.90;;;;;;5038128;28;19928;-90
2023/03/06 02:09:56;;;;;;;;;;;5.60;99.90;;;;;;5075993;28;19925;-90
2023/03/06 02:12:27;;;;;;;;;;;2.40;99.90;;;;;;5036222;28;19925;-90
2023/03/06 02:17:50;;;;;;;;;;;2.30;99.90;;;;;;5046960;28;19932;-90
2023/03/06 02:20:24;;;;;;;;;;;2.30;99.90;;;;;;5069601;28;19931;-90
2023/03/06 02:22:58;;;;;;;;;;;2.10;99.90;;;;;;5036657;28;19925;-90
2023/03/06 02:25:38;;;;;;;;;;;1.10;99.90;;;;;;5076345;28;19968;-90
2023/03/06 02:28:06;;;;;;;;;;;2.50;99.90;;;;;;5036500;28;19932;-90
2023/03/06 02:30:42;;;;;;;;;;;5.50;99.90;;;;;;5035234;28;19924;-90
2023/03/06 02:33:14;;;;;;;;;;;1.30;99.90;;;;;;5036449;28;19978;-90
2023/03/06 02:35:50;;;;;;;;;;;2.80;99.90;;;;;;5028450;28;19974;-90
2023/03/06 02:38:17;;;;;;;;;;;-0.70;99.90;;;;;;5059809;28;19925;-89
2023/03/06 02:40:56;;;;;;;;;;;0.30;99.90;;;;;;5070007;28;19925;-90
2023/03/06 02:43:33;;;;;;;;;;;2.10;99.90;;;;;;5036665;28;19929;-89
2023/03/06 02:46:06;;;;;;;;;;;4.90;99.90;;;;;;5035076;28;20277;-89
2023/03/06 02:48:31;;;;;;;;;;;4.80;99.90;;;;;;5062195;28;19948;-91
2023/03/06 02:50:57;;;;;;;;;;;-0.50;99.90;;;;;;5018882;28;19926;-89
2023/03/06 02:53:25;;;;;;;;;;;-0.50;99.90;;;;;;5032454;28;19967;-89
2023/03/06 02:55:51;;;;;;;;;;;2.30;99.90;;;;;;5048518;28;19931;-89
2023/03/06 02:58:18;;;;;;;;;;;4.30;99.90;;;;;;5086057;28;19925;-89
2023/03/06 03:00:50;;;;;;;;;;;2.20;99.90;;;;;;5074593;28;19924;-89
2023/03/06 03:03:18;;;;;;;;;;;4.90;99.90;;;;;;5035986;28;19947;-89
2023/03/06 03:05:48;;;;;;;;;;;4.50;99.90;;;;;;5035279;28;19968;-90
2023/03/06 03:08:16;;;;;;;;;;;-0.80;99.90;;;;;;5067988;28;19933;-89
2023/03/06 03:10:44;;;;;;;;;;;1.70;99.90;;;;;;5085157;28;19932;-89
2023/03/06 03:13:13;;;;;;;;;;;1.50;99.90;;;;;;5068369;28;20000;-89
2023/03/06 03:15:41;;;;;;;;;;;1.60;99.90;;;;;;5068945;28;19925;-90
2023/03/06 03:18:09;;;;;;;;;;;1.50;99.90;;;;;;5068945;28;19952;-89
2023/03/06 03:20:42;;;;;;;;;;;0.10;99.90;;;;;;5064402;28;19925;-89
2023/03/06 03:23:13;;;;;;;;;;;2.90;99.90;;;;;;5072923;28;20388;-89
2023/03/06 03:25:38;;;;;;;;;;;3.70;99.90;;;;;;5051832;28;19932;-89
2023/03/06 03:28:12;;;;;;;;;;;4.60;99.90;;;;;;5048432;28;19924;-89
2023/03/06 03:30:38;;;;;;;;;;;2.20;99.90;;;;;;5069873;28;20015;-90
2023/03/06 03:33:07;;;;;;;;;;;1.10;99.90;;;;;;5023816;28;20376;-90
2023/03/06 03:35:40;;;;;;;;;;;1.20;99.90;;;;;;5035316;28;19939;-90
2023/03/06 03:38:18;;;;;;;;;;;3.70;99.90;;;;;;5085723;28;20453;-90
2023/03/06 03:40:57;;;;;;;;;;;1.60;99.90;;;;;;5011825;28;19925;-89
2023/03/06 03:43:28;;;;;;;;;;;4.90;99.90;;;;;;5031974;28;19986;-90
2023/03/06 03:46:04;;;;;;;;;;;1.00;99.90;;;;;;5037783;28;20311;-90
2023/03/06 03:48:30;;;;;;;;;;;4.00;99.90;;;;;;5033240;28;19925;-90
2023/03/06 03:51:03;;;;;;;;;;;3.30;99.90;;;;;;5038815;28;19935;-90
2023/03/06 03:53:31;;;;;;;;;;;2.00;99.90;;;;;;5061884;28;19979;-90
2023/03/06 03:56:00;;;;;;;;;;;4.40;99.90;;;;;;5088845;28;19929;-90
2023/03/06 03:58:25;;;;;;;;;;;1.60;99.90;;;;;;5072164;28;20281;-90
2023/03/06 04:00:58;;;;;;;;;;;-1.10;99.90;;;;;;5037397;28;19996;-90
2023/03/06 04:03:24;;;;;;;;;;;4.30;99.90;;;;;;5055651;28;19931;-90
2023/03/06 04:06:10;;;;;;;;;;;2.10;99.90;;;;;;5039048;28;19925;-90
2023/03/06 04:08:41;;;;;;;;;;;0.60;99.90;;;;;;5071007;28;20360;-90
2023/03/06 04:11:12;;;;;;;;;;;1.20;99.90;;;;;;5071717;28;19925;-90
2023/03/06 04:13:38;;;;;;;;;;;0.60;99.90;;;;;;5021608;28;19979;-90
2023/03/06 04:16:21;;;;;;;;;;;0.60;99.90;;;;;;5037101;28;19929;-89
2023/03/06 04:19:00;;;;;;;;;;;0.90;99.90;;;;;;5085967;28;19929;-90
2023/03/06 04:21:31;;;;;;;;;;;-1.10;99.90;;;;;;5039997;28;19925;-89
2023/03/06 04:26:52;;;;;;;;;;;3.70;99.90;;;;;;5040223;28;19935;-90
2023/03/06 04:29:18;;;;;;;;;;;1.80;99.90;;;;;;5054014;28;19944;-89
2023/03/06 04:31:51;;;;;;;;;;;1.90;99.90;;;;;;5049974;28;19947;-89
2023/03/06 04:34:29;;;;;;;;;;;0.00;99.90;;;;;;5038770;28;20030;-90
2023/03/06 04:36:57;;;;;;;;;;;0.40;99.90;;;;;;5049360;28;19932;-89
2023/03/06 04:39:26;;;;;;;;;;;-0.40;99.90;;;;;;5037660;28;20352;-89
2023/03/06 04:41:52;;;;;;;;;;;3.30;99.90;;;;;;5038351;28;19960;-90
2023/03/06 04:44:20;;;;;;;;;;;1.00;99.90;;;;;;5037291;28;20337;-90
2023/03/06 04:47:01;;;;;;;;;;;3.50;99.90;;;;;;5037707;28;20284;-90
2023/03/06 04:49:42;;;;;;;;;;;;;;;;;;;;;
2023/03/06 04:52:14;;;;;;;;;;;-0.10;99.90;;;;;;5040081;28;19932;-90
2023/03/06 04:54:50;;;;;;;;;;;3.90;99.90;;;;;;5073221;28;19929;-89
2023/03/06 04:57:29;;;;;;;;;;;1.90;99.90;;;;;;5064954;28;20008;-90
2023/03/06 05:00:15;;;;;;;;;;;3.60;99.90;;;;;;5047753;28;19964;-89
2023/03/06 05:02:52;;;;;;;;;;;1.00;99.90;;;;;;5041939;28;19968;-90
2023/03/06 05:05:18;;;;;;;;;;;3.70;99.90;;;;;;5036945;28;19925;-90
2023/03/06 05:07:44;;;;;;;;;;;0.50;99.90;;;;;;5051114;28;20421;-90
2023/03/06 05:10:24;;;;;;;;;;;0.40;99.90;;;;;;5059123;28;20011;-90
2023/03/06 05:12:50;;;;;;;;;;;0.50;99.90;;;;;;5032320;28;19925;-89
2023/03/06 05:15:20;;;;;;;;;;;3.70;99.90;;;;;;5030076;28;19991;-89
2023/03/06 05:17:46;;;;;;;;;;;1.80;99.90;;;;;;5035833;28;20015;-89
2023/03/06 05:20:13;;;;;;;;;;;2.90;99.90;;;;;;5035192;28;19925;-90
2023/03/06 05:22:54;;;;;;;;;;;0.80;99.90;;;;;;5033679;28;19925;-89
2023/03/06 05:25:25;;;;;;;;;;;3.90;99.90;;;;;;5069697;28;20027;-89
2023/03/06 05:27:53;;;;;;;;;;;2.10;99.90;;;;;;5057588;28;19978;-89
2023/03/06 05:30:26;;;;;;;;;;;2.20;99.90;;;;;;5052723;28;19977;-89
2023/03/06 05:32:54;;;;;;;;;;;1.00;99.90;;;;;;5087783;28;19932;-89
2023/03/06 05:35:31;;;;;;;;;;;0.40;99.90;;;;;;5070388;28;19932;-89
2023/03/06 05:38:02;;;;;;;;;;;2.30;99.90;;;;;;5039979;28;19935;-89
2023/03/06 05:40:35;;;;;;;;;;;0.70;99.90;;;;;;5060482;28;19925;-90
2023/03/06 05:43:06;;;;;;;;;;;4.00;99.90;;;;;;5026923;28;19972;-90
2023/03/06 05:45:42;;;;;;;;;;;2.00;99.90;;;;;;5036223;28;20081;-89
2023/03/06 05:48:22;;;;;;;;;;;2.50;99.90;;;;;;5033950;28;19979;-88
2023/03/06 05:50:56;;;;;;;;;;;3.20;99.90;;;;;;5046198;28;19929;-90
2023/03/06 05:53:25;;;;;;;;;;;0.30;99.90;;;;;;5084201;28;20004;-89
2023/03/06 05:56:03;;;;;;;;;;;3.90;99.90;;;;;;5086577;28;19931;-88
2023/03/06 05:58:40;;;;;;;;;;;0.20;99.90;;;;;;5050970;28;19932;-89
2023/03/06 06:01:11;;;;;;;;;;;3.60;99.90;;;;;;5016039;28;19926;-89
2023/03/06 06:03:39;;;;;;;;;;;0.90;99.90;;;;;;5048363;28;19976;-90
2023/03/06 06:06:12;;;;;;;;;;;2.20;99.90;;;;;;5075606;28;19925;-90
2023/03/06 06:08:37;;;;;;;;;;;3.80;99.90;;;;;;5077454;28;20324;-89
2023/03/06 06:11:17;;;;;;;;;;;;;;;;;;;;;
2023/03/06 06:13:52;;;;;;;;;;;0.40;99.90;;;;;;5052196;28;19925;-90
2023/03/06 06:16:28;;;;;;;;;;;0.30;99.90;;;;;;5051350;28;19933;-89
2023/03/06 06:18:58;;;;;;;;;;;0.30;99.90;;;;;;5084672;28;19925;-89
2023/03/06 06:21:36;;;;;;;;;;;;;;;;;;;;;
2023/03/06 06:24:10;;;;;;;;;;;3.90;99.90;;;;;;5033958;28;20384;-90
2023/03/06 06:26:41;;;;;;;;;;;0.30;99.90;;;;;;5052868;28;19947;-90
2023/03/06 06:29:13;;;;;;;;;;;3.10;99.90;;;;;;5035821;28;19935;-91
2023/03/06 06:31:43;;;;;;;;;;;3.90;99.90;;;;;;5070931;28;19925;-91
2023/03/06 06:34:27;;;;;;;;;;;-0.80;99.90;;;;;;5053594;28;19932;-90
2023/03/06 06:36:53;;;;;;;;;;;3.00;99.90;;;;;;5070278;28;19925;-90
2023/03/06 06:39:39;;;;;;;;;;;-1.30;99.90;;;;;;5026376;28;19925;-91
2023/03/06 06:42:12;;;;;;;;;;;-0.10;99.90;;;;;;5035774;28;20369;-90
2023/03/06 06:44:47;;;;;;;;;;;0.90;99.90;;;;;;5033680;28;20333;-90
2023/03/06 06:47:17;;;;;;;;;;;3.20;99.90;;;;;;5059876;28;20288;-91
2023/03/06 06:49:48;;;;;;;;;;;1.50;99.90;;;;;;5039599;28;20020;-90
2023/03/06 06:52:25;;;;;;;;;;;-0.10;99.90;;;;;;5035691;28;19928;-90
2023/03/06 06:54:56;;;;;;;;;;;0.00;99.90;;;;;;5068432;28;19974;-90
2023/03/06 06:57:24;;;;;;;;;;;0.20;99.90;;;;;;5034476;28;19925;-91
2023/03/06 07:00:08;;;;;;;;;;;3.00;99.90;;;;;;5034413;28;19932;-91
2023/03/06 07:02:39;;;;;;;;;;;-0.10;99.90;;;;;;5053898;28;19936;-91
2023/03/06 07:05:07;;;;;;;;;;;-0.20;99.90;;;;;;5083172;28;19925;-91
2023/03/06 07:10:29;;;;;;;;;;;-0.30;99.90;;;;;;5048678;28;19925;-90
2023/03/06 07:13:03;;;;;;;;;;;1.90;99.90;;;;;;5081691;28;19925;-90
2023/03/06 07:15:31;;;;;;;;;;;-0.30;99.90;;;;;;5034542;28;19925;-90
2023/03/06 07:18:17;;;;;;;;;;;;;;;;;;;;;
2023/03/06 07:20:56;;;;;;;;;;;2.20;99.90;;;;;;5047443;28;19925;-91
2023/03/06 07:23:25;;;;;;;;;;;3.30;99.90;;;;;;5043016;28;19925;-90
2023/03/06 07:25:53;;;;;;;;;;;-0.60;99.90;;;;;;5029043;28;19925;-91
2023/03/06 07:28:29;;;;;;;;;;;3.50;99.90;;;;;;5031409;28;19925;-90
2023/03/06 07:31:00;;;;;;;;;;;-0.20;99.90;;;;;;5031235;28;20011;-90
2023/03/06 07:33:26;;;;;;;;;;;2.60;99.90;;;;;;5023667;28;20016;-91
2023/03/06 07:35:51;;;;;;;;;;;-0.70;99.90;;;;;;5065473;28;20384;-91
2023/03/06 07:38:35;;;;;;;;;;;3.00;99.90;;;;;;5068624;28;19947;-90
2023/03/06 07:41:14;;;;;;;;;;;;;;;;;;;;;
2023/03/06 07:43:51;;;;;;;;;;;0.70;99.90;;;;;;5080657;28;19980;-90
2023/03/06 07:46:20;;;;;;;;;;;0.00;99.90;;;;;;5052928;28;19925;-90
2023/03/06 07:48:58;;;;;;;;;;;;;;;;;;;;;
2023/03/06 07:51:35;;;;;;;;;;;1.20;99.90;;;;;;5036471;28;19937;-90
2023/03/06 07:54:11;;;;;;;;;;;0.20;99.90;;;;;;5062166;28;20019;-91
2023/03/06 07:56:40;;;;;;;;;;;1.50;99.90;;;;;;5064335;28;19940;-90
2023/03/06 07:59:11;;;;;;;;;;;0.70;99.90;;;;;;5048650;28;19931;-90
2023/03/06 08:01:39;;;;;;;;;;;3.50;99.90;;;;;;5028348;28;19933;-91
2023/03/06 08:04:13;;;;;;;;;;;1.80;99.90;;;;;;5031935;28;20012;-91
2023/03/06 08:06:38;;;;;;;;;;;-1.40;99.90;;;;;;5058362;28;19932;-91
2023/03/06 08:09:06;;;;;;;;;;;4.00;99.90;;;;;;5044719;28;19925;-91
2023/03/06 08:11:48;;;;;;;;;;;2.10;99.90;;;;;;5054004;28;19925;-91
2023/03/06 08:14:20;;;;;;;;;;;0.70;99.90;;;;;;5050542;28;20391;-91
2023/03/06 08:16:48;;;;;;;;;;;0.80;99.90;;;;;;5013260;28;20291;-91
2023/03/06 08:19:16;;;;;;;;;;;0.90;99.90;;;;;;5083684;28;19978;-90
2023/03/06 08:21:44;;;;;;;;;;;0.30;99.90;;;;;;5051683;28;19951;-91
2023/03/06 08:24:27;;;;;;;;;;;;;;;;;;;;;
2023/03/06 08:27:08;;;;;;;;;;;3.10;99.90;;;;;;5041162;28;19936;-91
2023/03/06 08:29:43;;;;;;;;;;;4.20;99.90;;;;;;5031389;28;19995;-92
2023/03/06 08:32:10;;;;;;;;;;;-0.50;99.90;;;;;;5061788;28;19925;-91
2023/03/06 08:35:05;;;;;;;;;;;1.70;99.90;;;;;;5071427;28;20003;-90
2023/03/06 08:37:33;;;;;;;;;;;2.20;99.90;;;;;;5036656;28;20024;-91
2023/03/06 08:40:01;;;;;;;;;;;1.60;99.90;;;;;;5037455;28;20372;-91
2023/03/06 08:42:46;;;;;;;;;;;1.60;99.90;;;;;;5051685;28;19951;-90
2023/03/06 08:45:23;;;;;;;;;;;2.10;99.90;;;;;;5053817;28;19924;-89
2023/03/06 08:48:01;;;;;;;;;;;0.60;99.90;;;;;;5071449;28;20012;-90
2023/03/06 08:50:33;;;;;;;;;;;0.30;99.90;;;;;;5079066;28;20296;-90
2023/03/06 08:53:01;;;;;;;;;;;3.70;99.90;;;;;;5084045;28;20273;-90
2023/03/06 08:55:27;;;;;;;;;;;2.40;99.90;;;;;;5032451;28;19939;-90
2023/03/06 08:58:00;;;;;;;;;;;2.60;99.90;;;;;;5067017;28;20387;-89
2023/03/06 09:00:54;;;;;;;;;;;1.90;99.90;;;;;;5037912;28;19964;-90
2023/03/06 09:03:27;;;;;;;;;;;5.70;99.90;;;;;;5052462;28;20378;-89
2023/03/06 09:06:06;;;;;;;;;;;2.70;99.90;;;;;;5037764;28;20388;-90
2023/03/06 09:08:45;;;;;;;;;;;1.00;99.90;;;;;;5037934;28;19928;-90
2023/03/06 09:11:21;;;;;;;;;;;5.00;99.90;;;;;;5082693;28;20070;-91
2023/03/06 09:13:49;;;;;;;;;;;4.20;99.90;;;;;;5036199;28;19943;-90
2023/03/06 09:16:17;;;;;;;;;;;4.10;99.90;;;;;;5036666;28;19932;-91
2023/03/06 09:18:44;;;;;;;;;;;2.30;99.90;;;;;;5031419;28;19932;-90
2023/03/06 09:21:09;;;;;;;;;;;3.00;99.90;;;;;;5069680;28;20000;-91
2023/03/06 09:23:46;;;;;;;;;;;3.80;99.90;;;;;;5083764;28;19982;-91
2023/03/06 09:26:22;;;;;;;;;;;3.00;99.90;;;;;;5063295;28;20004;-89
2023/03/06 09:28:50;;;;;;;;;;;3.70;99.90;;;;;;5081613;28;19929;-90
2023/03/06 09:31:27;;;;;;;;;;;4.80;99.90;;;;;;5085288;28;20015;-90
2023/03/06 09:33:55;;;;;;;;;;;4.20;99.90;;;;;;5072747;28;19960;-90
2023/03/06 09:36:25;;;;;;;;;;;4.00;99.90;;;;;;5074434;28;20379;-90
2023/03/06 09:39:12;;;;;;;;;;;3.30;99.90;;;;;;5028158;28;19925;-90
2023/03/06 09:41:49;;;;;;;;;;;3.60;99.90;;;;;;5073474;28;19928;-90
2023/03/06 09:44:42;;;;;;;;;;;5.40;99.90;;;;;;5059712;28;20041;-90
2023/03/06 09:47:31;;;;;;;;;;;3.90;99.90;;;;;;5060133;28;19925;-90
2023/03/06 09:50:14;;;;;;;;;;;3.70;99.90;;;;;;5053512;28;19975;-89
2023/03/06 09:52:59;;;;;;;;;;;4.70;99.90;;;;;;5038223;28;20442;-90
2023/03/06 09:55:42;;;;;;;;;;;4.10;99.90;;;;;;5030257;28;19960;-90
2023/03/06 09:58:23;;;;;;;;;;;5.50;99.90;;;;;;5067291;28;19924;-89
2023/03/06 10:00:54;;;;;;;;;;;2.20;99.90;;;;;;5068935;28;20010;-90
2023/03/06 10:03:29;;;;;;;;;;;4.80;99.90;;;;;;5065059;28;20015;-90
2023/03/06 10:06:03;;;;;;;;;;;4.30;99.90;;;;;;5051972;28;19975;-90
2023/03/06 10:08:43;;;;;;;;;;;4.40;99.90;;;;;;5086292;28;19964;-90
2023/03/06 10:11:12;;;;;;;;;;;4.70;99.90;;;;;;5069684;28;20392;-90
2023/03/06 10:13:43;;;;;;;;;;;4.60;99.90;;;;;;5084254;28;19925;-90
2023/03/06 10:16:48;;;;;;;;;;;4.50;99.90;;;;;;5085694;28;20010;-90
2023/03/06 10:19:19;;;;;;;;;;;6.70;99.90;;;;;;4993519;28;20046;-89
2023/03/06 10:21:51;;;;;;;;;;;4.50;99.90;;;;;;5027345;28;19932;-91
2023/03/06 10:24:44;;;;;;;;;;;2.20;99.90;;;;;;5049631;28;19940;-90
2023/03/06 10:27:28;;;;;;;;;;;5.60;99.90;;;;;;5037282;28;20364;-91
2023/03/06 10:30:05;;;;;;;;;;;5.60;99.90;;;;;;5035522;28;19932;-90
2023/03/06 10:32:45;;;;;;;;;;;5.10;99.90;;;;;;5067876;28;20340;-89
2023/03/06 10:35:20;;;;;;;;;;;5.10;99.90;;;;;;5025013;28;20012;-90
2023/03/06 10:37:47;;;;;;;;;;;5.10;99.90;;;;;;5036255;28;20043;-90
2023/03/06 10:40:38;;;;;;;;;;;5.20;99.90;;;;;;5048497;28;19974;-90
2023/03/06 10:43:11;;;;;;;;;;;5.60;99.90;;;;;;5046095;28;19924;-90
2023/03/06 10:46:05;;;;;;;;;;;;;;;;;;;;;
2023/03/06 10:48:52;;;;;;;;;;;5.40;99.90;;;;;;5052522;28;20281;-89
2023/03/06 10:51:20;;;;;;;;;;;5.50;99.90;;;;;;5048137;28;19929;-90
2023/03/06 10:53:57;;;;;;;;;;;5.50;99.90;;;;;;5019103;28;19932;-90
2023/03/06 10:56:35;;;;;;;;;;;3.80;99.90;;;;;;5027325;28;19925;-90
2023/03/06 10:59:13;;;;;;;;;;;3.60;99.90;;;;;;5049033;28;19925;-90
2023/03/06 11:01:40;;;;;;;;;;;5.90;99.90;;;;;;5075421;28;20015;-89
2023/03/06 11:04:21;;;;;;;;;;;5.60;99.90;;;;;;5040684;28;20086;-90
2023/03/06 11:06:50;;;;;;;;;;;5.70;99.90;;;;;;5084443;28;19929;-90
2023/03/06 11:09:23;;;;;;;;;;;5.80;99.90;;;;;;5035556;28;20008;-89
2023/03/06 11:12:10;;;;;;;;;;;3.60;99.90;;;;;;5081995;28;19939;-90
2023/03/06 11:14:59;;;;;;;;;;;5.70;99.90;;;;;;5057632;28;19978;-89
2023/03/06 11:17:37;;;;;;;;;;;5.40;99.90;;;;;;5051183;28;19937;-90
2023/03/06 11:20:24;;;;;;;;;;;5.60;99.90;;;;;;5085198;28;19970;-89
2023/03/06 11:22:55;;;;;;;;;;;5.20;99.90;;;;;;5046169;28;19925;-89
2023/03/06 11:25:33;;;;;;;;;;;5.80;99.90;;;;;;5069167;28;19925;-89
2023/03/06 11:28:05;;;;;;;;;;;5.50;99.90;;;;;;5085801;28;19924;-90
2023/03/06 11:30:43;;;;;;;;;;;5.90;99.90;;;;;;5026339;28;20428;-90
2023/03/06 11:33:34;;;;;;;;;;;5.30;99.90;;;;;;5035589;28;19929;-89
2023/03/06 11:36:10;;;;;;;;;;;4.50;99.90;;;;;;5035208;28;19925;-89
2023/03/06 11:38:52;;;;;;;;;;;5.80;99.90;;;;;;5071902;28;20377;-91
2023/03/06 11:41:32;;;;;;;;;;;5.80;99.90;;;;;;5069574;28;19931;-89
2023/03/06 11:44:13;;;;;;;;;;;5.80;99.90;;;;;;5034886;28;19925;-89
2023/03/06 11:46:45;;;;;;;;;;;5.40;99.90;;;;;;5045798;28;19978;-89
2023/03/06 11:49:31;;;;;;;;;;;4.30;99.90;;;;;;5048140;28;19983;-89
2023/03/06 11:52:04;;;;;;;;;;;5.30;99.90;;;;;;5071835;28;20011;-89
2023/03/06 11:54:30;;;;;;;;;;;4.50;99.90;;;;;;5035780;28;20383;-89
2023/03/06 11:57:08;;;;;;;;;;;5.10;99.90;;;;;;5078896;28;19940;-90
2023/03/06 12:02:34;;;;;;;;;;;3.10;99.90;;;;;;5054603;28;19925;-89
2023/03/06 12:05:21;;;;;;;;;;;6.00;99.90;;;;;;5061423;28;19925;-89
2023/03/06 12:08:07;;;;;;;;;;;5.10;99.90;;;;;;5063646;28;19929;-89
2023/03/06 12:10:50;;;;;;;;;;;6.40;99.90;;;;;;5028955;28;19925;-89
2023/03/06 12:13:39;;;;;;;;;;;5.50;99.90;;;;;;5070469;28;20406;-90
2023/03/06 12:16:26;;;;;;;;;;;6.60;99.90;;;;;;5049369;28;19924;-89
2023/03/06 12:19:16;;;;;;;;;;;5.30;99.90;;;;;;5045313;28;19974;-89
2023/03/06 12:22:07;;;;;;;;;;;3.10;99.90;;;;;;5072176;28;19932;-89
2023/03/06 12:24:58;;;;;;;;;;;5.10;99.90;;;;;;5085552;28;20359;-88
2023/03/06 12:27:39;;;;;;;;;;;3.70;99.90;;;;;;5070036;28;19925;-89
2023/03/06 12:30:27;;;;;;;;;;;5.60;99.90;;;;;;5028808;28;20015;-89
2023/03/06 12:33:05;;;;;;;;;;;5.50;99.90;;;;;;5085073;28;19932;-89
2023/03/06 12:35:56;;;;;;;;;;;;;;;;;;;;;
2023/03/06 12:38:39;;;;;;;;;;;6.40;99.90;;;;;;5088550;28;19925;-89
2023/03/06 12:41:22;;;;;;;;;;;6.10;99.90;;;;;;5064605;28;19964;-89
2023/03/06 12:44:07;;;;;;;;;;;6.70;99.90;;;;;;5070924;28;19932;-89
2023/03/06 12:46:36;;;;;;;;;;;6.30;99.90;;;;;;5070236;28;19925;-90
2023/03/06 12:51:55;;;;;;;;;;;4.50;99.90;;;;;;5058725;28;19925;-89
2023/03/06 12:54:25;;;;;;;;;;;6.80;99.90;;;;;;5038039;28;19979;-90
2023/03/06 12:56:52;;;;;;;;;;;8.10;99.90;;;;;;5038440;28;20018;-89
2023/03/06 12:59:36;;;;;;;;;;;6.50;99.90;;;;;;5061380;28;20430;-89
2023/03/06 13:02:07;;;;;;;;;;;6.70;99.90;;;;;;5088174;28;19925;-90
2023/03/06 13:04:56;;;;;;;;;;;6.70;99.90;;;;;;5070510;28;19929;-90
2023/03/06 13:07:30;;;;;;;;;;;9.80;99.90;;;;;;5064169;28;19925;-90
2023/03/06 13:10:14;;;;;;;;;;;6.70;99.90;;;;;;5036938;28;19980;-90
2023/03/06 13:12:48;;;;;;;;;;;7.40;99.90;;;;;;5070475;28;20283;-91
2023/03/06 13:15:31;;;;;;;;;;;4.40;99.90;;;;;;5053488;28;20464;-89
2023/03/06 13:18:19;;;;;;;;;;;6.30;99.90;;;;;;5087619;28;19925;-90
2023/03/06 13:21:03;;;;;;;;;;;6.90;99.90;;;;;;5079545;28;19947;-92
2023/03/06 13:24:11;;;;;;;;;;;5.60;99.90;;;;;;5038327;28;20300;-90
2023/03/06 13:26:37;;;;;;;;;;;6.50;99.90;;;;;;5046352;28;19928;-90
2023/03/06 13:29:22;;;;;;;;;;;6.30;99.90;;;;;;5053449;28;19925;-91
2023/03/06 13:32:04;;;;;;;;;;;;;;;;;;;;;
2023/03/06 13:34:45;;;;;;;;;;;6.70;99.90;;;;;;5046914;28;19925;-90
2023/03/06 13:37:19;;;;;;;;;;;6.30;99.90;;;;;;5037293;28;19925;-89
2023/03/06 13:39:57;;;;;;;;;;;6.60;99.90;;;;;;5053443;28;20288;-89
2023/03/06 13:42:44;;;;;;;;;;;7.00;99.90;;;;;;5070031;28;20328;-90
2023/03/06 13:45:29;;;;;;;;;;;7.00;99.90;;;;;;5047273;28;19939;-89
2023/03/06 13:48:06;;;;;;;;;;;6.90;99.90;;;;;;5042051;28;19963;-90
2023/03/06 13:50:37;;;;;;;;;;;6.80;99.90;;;;;;5073972;28;20352;-90
2023/03/06 13:53:14;;;;;;;;;;;6.80;99.90;;;;;;5031226;28;19977;-90
2023/03/06 13:55:48;;;;;;;;;;;6.80;99.90;;;;;;5053268;28;20251;-89
2023/03/06 13:58:53;;;;;;;;;;;;;;;;;;;;;
2023/03/06 14:02:05;;;;;;;;;;;7.20;99.90;;;;;;5011131;28;20034;-89
2023/03/06 14:04:37;;;;;;;;;;;7.00;99.90;;;;;;5029939;28;20504;-89
2023/03/06 14:07:11;;;;;;;;;;;8.50;99.90;;;;;;5000165;28;20424;-90
2023/03/06 14:09:41;;;;;;;;;;;6.70;99.90;;;;;;5015042;28;19936;-90
2023/03/06 14:12:43;;;;;;;;;;;7.20;99.90;;;;;;5015869;28;20349;-90
2023/03/06 14:15:20;;;;;;;;;;;7.00;99.90;;;;;;5023101;28;19925;-89
2023/03/06 14:17:56;;;;;;;;;;;6.90;99.90;;;;;;5074463;28;19947;-89
2023/03/06 14:20:26;;;;;;;;;;;6.80;99.90;;;;;;5085837;28;19931;-89
2023/03/06 14:23:11;;;;;;;;;;;6.80;99.90;;;;;;5073315;28;20448;-89
2023/03/06 14:25:41;;;;;;;;;;;8.70;99.90;;;;;;5035546;28;20432;-89
2023/03/06 14:28:34;;;;;;;;;;;7.20;99.90;;;;;;5036328;28;19929;-90
2023/03/06 14:31:12;;;;;;;;;;;7.10;99.90;;;;;;5047425;28;19935;-89
2023/03/06 14:33:42;;;;;;;;;;;7.00;99.90;;;;;;5036206;28;19932;-89
2023/03/06 14:36:18;;;;;;;;;;;7.00;99.90;;;;;;5036104;28;19932;-89
2023/03/06 14:39:04;;;;;;;;;;;4.20;99.90;;;;;;5035592;28;19924;-89
2023/03/06 14:41:41;;;;;;;;;;;7.40;99.90;;;;;;5051633;28;19932;-90
2023/03/06 14:44:12;;;;;;;;;;;6.70;99.90;;;;;;5076095;28;19931;-90
2023/03/06 14:46:58;;;;;;;;;;;6.70;99.90;;;;;;5068449;28;20375;-89
2023/03/06 14:49:32;;;;;;;;;;;6.80;99.90;;;;;;5052083;28;19925;-89
2023/03/06 14:52:01;;;;;;;;;;;6.50;99.90;;;;;;5074504;28;19925;-89
2023/03/06 14:54:31;;;;;;;;;;;6.20;99.90;;;;;;5083126;28;20443;-89
2023/03/06 14:57:10;;;;;;;;;;;4.70;99.90;;;;;;5063318;28;19929;-89
2023/03/06 14:59:59;;;;;;;;;;;6.80;99.90;;;;;;5062283;28;19991;-89
2023/03/06 15:02:31;;;;;;;;;;;6.10;99.90;;;;;;5051276;28;23797;-89
2023/03/06 15:05:04;;;;;;;;;;;5.40;99.90;;;;;;5085250;28;20003;-89
2023/03/06 15:07:39;;;;;;;;;;;6.20;99.90;;;;;;5085126;28;19924;-90
2023/03/06 15:10:28;;;;;;;;;;;4.90;99.90;;;;;;5053021;28;19924;-90
2023/03/06 15:13:06;;;;;;;;;;;6.80;99.90;;;;;;5048684;28;20015;-89
2023/03/06 15:15:40;;;;;;;;;;;6.20;99.90;;;;;;5066082;28;19974;-89
2023/03/06 15:18:28;;;;;;;;;;;5.00;99.90;;;;;;5082800;28;20035;-90
2023/03/06 15:21:24;;;;;;;;;;;;;;;;;;;;;
2023/03/06 15:23:51;;;;;;;;;;;4.00;99.90;;;;;;5040348;28;19951;-90
2023/03/06 15:26:22;;;;;;;;;;;6.10;99.90;;;;;;5051649;28;19932;-89
2023/03/06 15:29:15;;;;;;;;;;;6.50;99.90;;;;;;5075599;28;19931;-89
2023/03/06 15:31:45;;;;;;;;;;;5.90;99.90;;;;;;5041676;28;19951;-89
2023/03/06 15:34:10;;;;;;;;;;;5.70;99.90;;;;;;5055796;28;20284;-89
2023/03/06 15:37:03;;;;;;;;;;;6.10;99.90;;;;;;5051809;28;20003;-90
2023/03/06 15:39:32;;;;;;;;;;;6.00;99.90;;;;;;5069006;28;19990;-89
2023/03/06 15:42:15;;;;;;;;;;;5.60;99.90;;;;;;5069584;28;19925;-90
2023/03/06 15:45:10;;;;;;;;;;;6.30;99.90;;;;;;5037478;28;19928;-89